Time;durP1;ratioP1;P1;durP2;ratioP2;P2;SDS_P1;SDS_P2;PMS_P1;PMS_P2;Temp;Humidity;BMP_temperature;BMP_pressure;BME280_temperature;BME280_humidity;BME280_pressure;Samples;Min_cycle;Max_cycle;Signal;HPM_P1;HPM_P2
2022/01/28 00:00:15;;;;;;;13.90;3.92;;;;;;;;;;5091516;28;20503;-87
2022/01/28 00:02:55;;;;;;;11.73;2.45;;;;;;;;;;5092330;28;20036;-89
2022/01/28 00:05:22;;;;;;;14.35;3.17;;;;;;;;;;5092472;28;20036;-90
2022/01/28 00:07:53;;;;;;;15.25;2.92;;;;;;;;;;5103912;28;20033;-90
2022/01/28 00:10:21;;;;;;;15.75;2.95;;;;;;;;;;5125918;27;20040;-92
2022/01/28 00:39:44;;;;;;;17.50;3.88;;;;;;;;;;5126600;27;20071;-90
2022/01/28 00:42:11;;;;;;;19.05;4.70;;;;;;;;;;5108997;28;20483;-90
2022/01/28 00:44:37;;;;;;;16.25;4.13;;;;;;;;;;5107931;28;20082;-91
2022/01/28 00:47:04;;;;;;;16.48;4.18;;;;;;;;;;5090436;28;20328;-90
2022/01/28 00:49:30;;;;;;;16.95;4.22;;;;;;;;;;5108649;28;20035;-86
2022/01/28 00:51:57;;;;;;;20.55;3.97;;;;;;;;;;5107846;28;20055;-89
2022/01/28 00:54:23;;;;;;;16.50;3.78;;;;;;;;;;5107594;27;20047;-89
2022/01/28 00:56:49;;;;;;;13.95;3.25;;;;;;;;;;5090587;28;20160;-93
2022/01/28 00:59:15;;;;;;;14.73;3.53;;;;;;;;;;5107141;28;20042;-90
2022/01/28 01:01:42;;;;;;;16.67;3.50;;;;;;;;;;5090262;28;20036;-89
2022/01/28 01:04:08;;;;;;;20.70;3.97;;;;;;;;;;5124377;27;20076;-86
2022/01/28 01:06:35;;;;;;;17.92;3.05;;;;;;;;;;5090955;28;20113;-89
2022/01/28 01:09:01;;;;;;;22.52;3.83;;;;;;;;;;5089803;28;20040;-90
2022/01/28 01:11:28;;;;;;;16.05;3.65;;;;;;;;;;5107425;28;20081;-89
2022/01/28 01:13:56;;;;;;;19.63;3.90;;;;;;;;;;5090958;28;20047;-89
2022/01/28 01:16:42;;;;;;;16.02;3.80;;;;;;;;;;5106816;28;20044;-91
2022/01/28 01:19:20;;;;;;;20.13;4.05;;;;;;;;;;5124937;27;20538;-88
2022/01/28 01:21:53;;;;;;;16.48;3.60;;;;;;;;;;5107335;28;20074;-91
2022/01/28 01:24:22;;;;;;;16.77;3.28;;;;;;;;;;5107168;28;20040;-89
2022/01/28 01:26:49;;;;;;;16.00;3.83;;;;;;;;;;5090346;28;20032;-89
2022/01/28 01:29:18;;;;;;;12.93;3.55;;;;;;;;;;5089455;28;20380;-89
2022/01/28 01:31:45;;;;;;;13.27;3.50;;;;;;;;;;5106682;28;20090;-91
2022/01/28 01:34:15;;;;;;;13.15;3.22;;;;;;;;;;5106962;28;20132;-93
2022/01/28 01:36:42;;;;;;;14.40;3.65;;;;;;;;;;5089836;28;20518;-89
2022/01/28 01:39:09;;;;;;;17.65;3.50;;;;;;;;;;5124074;27;20109;-90
2022/01/28 01:41:41;;;;;;;16.27;3.28;;;;;;;;;;5106220;28;20414;-92
2022/01/28 01:44:18;;;;;;;17.92;4.15;;;;;;;;;;5090188;28;20075;-89
2022/01/28 01:52:18;;;;;;;;;;;;;;;;;;5069972;28;20070;-90
2022/01/28 01:54:44;;;;;;;17.08;3.80;;;;;;;;;;5089083;28;19916;-89
2022/01/28 01:57:12;;;;;;;15.65;3.88;;;;;;;;;;5107202;28;20036;-90
2022/01/28 01:59:39;;;;;;;18.95;4.30;;;;;;;;;;5123515;27;20495;-89
2022/01/28 02:02:06;;;;;;;16.65;3.88;;;;;;;;;;5123485;27;20065;-92
2022/01/28 02:04:32;;;;;;;18.80;4.20;;;;;;;;;;5107743;28;20040;-94
2022/01/28 02:06:59;;;;;;;19.90;3.75;;;;;;;;;;5108573;28;20035;-91
2022/01/28 02:09:26;;;;;;;27.15;4.88;;;;;;;;;;5089135;28;20040;-89
2022/01/28 02:11:52;;;;;;;19.05;4.45;;;;;;;;;;5125014;27;20044;-94
2022/01/28 02:14:19;;;;;;;20.80;4.43;;;;;;;;;;5109391;28;20407;-88
2022/01/28 02:16:45;;;;;;;22.58;5.30;;;;;;;;;;5107516;28;20492;-92
2022/01/28 02:19:12;;;;;;;20.63;4.38;;;;;;;;;;5106835;28;20048;-93
2022/01/28 02:21:45;;;;;;;23.00;5.25;;;;;;;;;;5108347;28;20123;-91
2022/01/28 02:24:13;;;;;;;24.98;4.63;;;;;;;;;;5108077;28;20039;-93
2022/01/28 02:26:39;;;;;;;17.90;4.57;;;;;;;;;;5090503;28;20040;-92
2022/01/28 02:29:11;;;;;;;17.58;4.60;;;;;;;;;;5090203;28;20553;-90
2022/01/28 02:31:38;;;;;;;19.92;4.47;;;;;;;;;;5108086;28;20036;-91
2022/01/28 02:34:06;;;;;;;19.08;4.95;;;;;;;;;;5102281;28;20088;-93
2022/01/28 02:36:32;;;;;;;21.52;4.68;;;;;;;;;;5068509;28;20750;-91
2022/01/28 02:38:59;;;;;;;22.05;5.00;;;;;;;;;;5098383;28;20098;-92
2022/01/28 02:41:31;;;;;;;23.25;5.05;;;;;;;;;;5107314;28;20040;-93
2022/01/28 02:44:16;;;;;;;24.08;5.43;;;;;;;;;;5089939;28;20043;-90
2022/01/28 02:46:55;;;;;;;21.13;5.03;;;;;;;;;;5106418;28;20040;-92
2022/01/28 02:49:24;;;;;;;24.13;4.75;;;;;;;;;;5118159;28;20510;-94
2022/01/28 02:51:50;;;;;;;23.73;5.88;;;;;;;;;;5094186;28;20043;-93
2022/01/28 02:54:18;;;;;;;19.42;4.95;;;;;;;;;;5081785;28;20071;-89
2022/01/28 02:56:53;;;;;;;25.55;5.70;;;;;;;;;;5089461;28;20040;-89
2022/01/28 02:59:20;;;;;;;24.95;5.13;;;;;;;;;;5106710;28;20556;-92
2022/01/28 03:01:46;;;;;;;17.33;4.90;;;;;;;;;;5090025;28;20047;-90
2022/01/28 03:04:27;;;;;;;27.95;5.70;;;;;;;;;;5107796;28;20188;-94
2022/01/28 03:06:54;;;;;;;25.52;5.45;;;;;;;;;;5107792;28;20032;-95
2022/01/28 03:09:21;;;;;;;23.45;4.60;;;;;;;;;;5106551;28;20047;-93
2022/01/28 03:12:10;;;;;;;19.90;5.47;;;;;;;;;;5090918;28;20162;-93
2022/01/28 03:14:53;;;;;;;19.08;4.55;;;;;;;;;;5091048;28;20122;-92
2022/01/28 03:18:07;;;;;;;18.10;4.18;;;;;;;;;;5086271;28;20052;-93
2022/01/28 03:22:45;;;;;;;26.88;5.07;;;;;;;;;;5083296;28;20044;-94
2022/01/28 03:25:11;;;;;;;19.65;5.00;;;;;;;;;;5069864;28;20072;-94
2022/01/28 03:27:53;;;;;;;19.55;4.97;;;;;;;;;;5069496;28;20314;-89
2022/01/28 03:30:20;;;;;;;20.77;4.68;;;;;;;;;;5069595;28;20514;-89
2022/01/28 03:32:46;;;;;;;23.95;5.47;;;;;;;;;;5122118;28;20047;-90
2022/01/28 03:35:15;;;;;;;21.33;5.15;;;;;;;;;;5106277;28;20039;-90
2022/01/28 03:37:41;;;;;;;20.52;4.93;;;;;;;;;;5088675;28;20435;-89
2022/01/28 03:40:08;;;;;;;17.20;4.70;;;;;;;;;;5088380;28;20208;-92
2022/01/28 03:42:35;;;;;;;27.45;5.43;;;;;;;;;;5106339;28;20123;-91
2022/01/28 03:45:02;;;;;;;19.40;4.60;;;;;;;;;;5122864;28;20119;-93
2022/01/28 03:47:28;;;;;;;18.00;4.88;;;;;;;;;;5105420;28;20077;-89
2022/01/28 03:49:54;;;;;;;14.80;3.55;;;;;;;;;;5122134;28;20040;-89
2022/01/28 03:52:20;;;;;;;21.67;3.97;;;;;;;;;;5106075;28;20047;-87
2022/01/28 03:54:46;;;;;;;21.00;5.13;;;;;;;;;;5094599;28;20555;-92
2022/01/28 03:57:12;;;;;;;17.30;5.00;;;;;;;;;;5109519;28;20039;-90
2022/01/28 03:59:39;;;;;;;18.30;4.55;;;;;;;;;;5127422;27;20044;-92
2022/01/28 04:02:06;;;;;;;20.00;4.57;;;;;;;;;;5127433;27;20044;-88
2022/01/28 04:05:30;;;;;;;17.67;4.45;;;;;;;;;;5109383;28;20094;-92
2022/01/28 04:12:48;;;;;;;19.73;4.47;;;;;;;;;;5091776;28;20122;-83
2022/01/28 04:15:49;;;;;;;20.52;4.22;;;;;;;;;;5108171;28;20047;-92
2022/01/28 04:18:10;;;;;;;14.35;4.22;;;;;;;;;;5072673;28;20068;-91
2022/01/28 04:20:37;;;;;;;24.05;4.60;;;;;;;;;;5071294;28;20055;-91
2022/01/28 04:23:03;;;;;;;16.60;4.47;;;;;;;;;;5085023;28;20521;-88
2022/01/28 04:25:36;;;;;;;24.48;5.65;;;;;;;;;;5126346;27;20032;-86
2022/01/28 04:28:02;;;;;;;24.05;5.25;;;;;;;;;;5092153;28;20288;-94
2022/01/28 04:30:28;;;;;;;19.10;4.10;;;;;;;;;;5110292;28;20043;-92
2022/01/28 04:32:54;;;;;;;20.42;4.15;;;;;;;;;;5127066;27;20376;-92
2022/01/28 04:35:21;;;;;;;19.15;4.03;;;;;;;;;;5108042;28;20040;-93
2022/01/28 04:38:04;;;;;;;16.73;4.35;;;;;;;;;;5073724;28;20040;-91
2022/01/28 04:40:35;;;;;;;26.02;5.00;;;;;;;;;;5107273;28;20040;-92
2022/01/28 04:43:13;;;;;;;17.88;4.40;;;;;;;;;;5109794;28;20127;-93
2022/01/28 04:46:02;;;;;;;15.02;3.83;;;;;;;;;;5091498;28;20053;-93
2022/01/28 04:48:46;;;;;;;17.67;4.32;;;;;;;;;;5108162;28;20036;-93
2022/01/28 05:28:28;;;;;;;21.73;4.93;;;;;;;;;;5092245;28;20082;-93
2022/01/28 05:31:09;;;;;;;20.75;5.18;;;;;;;;;;5092167;28;20345;-90
2022/01/28 05:33:36;;;;;;;19.77;5.03;;;;;;;;;;5088190;28;20074;-93
2022/01/28 05:36:02;;;;;;;22.83;4.22;;;;;;;;;;5089632;28;20040;-92
2022/01/28 05:38:28;;;;;;;20.45;4.90;;;;;;;;;;5075499;28;20123;-92
2022/01/28 05:40:54;;;;;;;23.15;4.72;;;;;;;;;;5085433;28;20044;-92
2022/01/28 05:43:20;;;;;;;23.40;4.82;;;;;;;;;;5106522;27;20078;-89
2022/01/28 05:45:47;;;;;;;22.75;4.82;;;;;;;;;;5089873;28;20036;-93
2022/01/28 05:48:13;;;;;;;19.90;5.35;;;;;;;;;;5108308;28;20040;-92
2022/01/28 05:50:39;;;;;;;20.75;4.43;;;;;;;;;;5106572;28;20129;-92
2022/01/28 05:53:05;;;;;;;16.70;4.40;;;;;;;;;;5090651;28;20399;-92
2022/01/28 05:55:31;;;;;;;21.90;4.40;;;;;;;;;;5090443;28;20363;-92
2022/01/28 05:57:57;;;;;;;23.40;5.75;;;;;;;;;;5090274;28;20050;-93
2022/01/28 06:00:24;;;;;;;19.40;4.53;;;;;;;;;;5074445;28;20101;-94
2022/01/28 06:02:50;;;;;;;16.13;4.30;;;;;;;;;;5071202;28;20496;-93
2022/01/28 06:05:17;;;;;;;18.63;5.00;;;;;;;;;;5086566;28;20119;-91
2022/01/28 06:07:43;;;;;;;18.50;4.43;;;;;;;;;;5107290;28;20051;-87
2022/01/28 06:10:10;;;;;;;16.65;3.70;;;;;;;;;;5090547;28;20135;-92
2022/01/28 06:12:40;;;;;;;21.08;5.25;;;;;;;;;;5106602;28;20499;-89
2022/01/28 06:15:07;;;;;;;20.67;4.20;;;;;;;;;;5106390;28;20047;-93
2022/01/28 06:17:33;;;;;;;18.67;5.05;;;;;;;;;;5109684;28;20513;-92
2022/01/28 06:20:02;;;;;;;17.60;4.63;;;;;;;;;;5065396;28;20077;-93
2022/01/28 06:22:28;;;;;;;21.92;4.70;;;;;;;;;;5073046;28;20040;-93
2022/01/28 06:24:54;;;;;;;15.73;4.50;;;;;;;;;;5089536;28;20101;-94
2022/01/28 06:27:22;;;;;;;18.70;4.30;;;;;;;;;;5086024;28;20028;-90
2022/01/28 06:29:49;;;;;;;19.75;4.78;;;;;;;;;;5075398;28;20423;-92
2022/01/28 06:32:16;;;;;;;20.08;4.68;;;;;;;;;;5057020;28;20505;-93
2022/01/28 06:34:42;;;;;;;17.95;4.07;;;;;;;;;;5074859;28;20136;-94
2022/01/28 06:37:09;;;;;;;19.63;4.72;;;;;;;;;;5057683;28;20514;-94
2022/01/28 06:39:35;;;;;;;16.95;4.35;;;;;;;;;;5109035;28;20385;-93
2022/01/28 06:42:01;;;;;;;22.50;4.93;;;;;;;;;;5061489;28;20039;-93
2022/01/28 06:44:29;;;;;;;19.00;4.72;;;;;;;;;;5084016;28;20031;-93
2022/01/28 06:46:55;;;;;;;16.08;4.70;;;;;;;;;;5075438;28;20035;-92
2022/01/28 06:49:21;;;;;;;20.40;5.20;;;;;;;;;;5072274;28;20123;-91
2022/01/28 06:51:47;;;;;;;18.27;5.00;;;;;;;;;;5055434;28;20514;-93
2022/01/28 06:54:14;;;;;;;17.45;4.57;;;;;;;;;;5072621;28;20044;-92
2022/01/28 06:56:40;;;;;;;19.77;4.50;;;;;;;;;;5089477;28;20036;-92
2022/01/28 06:59:06;;;;;;;20.23;4.55;;;;;;;;;;5106345;28;20040;-92
2022/01/28 07:01:32;;;;;;;25.58;6.22;;;;;;;;;;5056985;28;20039;-94
2022/01/28 07:04:00;;;;;;;18.55;4.60;;;;;;;;;;5106380;28;20043;-91
2022/01/28 07:06:36;;;;;;;19.38;4.35;;;;;;;;;;5106759;28;20051;-94
2022/01/28 07:09:02;;;;;;;21.42;3.70;;;;;;;;;;5089446;28;20304;-92
2022/01/28 07:11:28;;;;;;;18.17;4.35;;;;;;;;;;5089262;28;20434;-93
2022/01/28 07:13:54;;;;;;;18.17;4.90;;;;;;;;;;5051695;28;20036;-93
2022/01/28 07:16:20;;;;;;;20.52;3.83;;;;;;;;;;5115982;28;20079;-91
2022/01/28 07:18:47;;;;;;;19.35;4.30;;;;;;;;;;5071449;28;20517;-92
2022/01/28 07:21:13;;;;;;;19.13;4.28;;;;;;;;;;5054154;28;20059;-93
2022/01/28 07:23:39;;;;;;;21.65;4.05;;;;;;;;;;5088075;28;20036;-91
2022/01/28 07:26:05;;;;;;;16.88;4.32;;;;;;;;;;5072464;28;20043;-93
2022/01/28 07:28:34;;;;;;;24.05;5.18;;;;;;;;;;5073504;28;20040;-91
2022/01/28 07:31:00;;;;;;;16.95;3.75;;;;;;;;;;5075796;28;20044;-94
2022/01/28 07:33:26;;;;;;;16.95;4.25;;;;;;;;;;5093438;28;20403;-92
2022/01/28 07:35:52;;;;;;;20.15;5.53;;;;;;;;;;5091300;28;20487;-94
2022/01/28 07:38:19;;;;;;;33.00;4.97;;;;;;;;;;5057077;28;20494;-94
2022/01/28 07:40:45;;;;;;;17.88;3.97;;;;;;;;;;5062424;28;20040;-95
2022/01/28 07:43:12;;;;;;;15.65;4.05;;;;;;;;;;5062816;28;20074;-93
2022/01/28 07:45:44;;;;;;;16.92;3.70;;;;;;;;;;5063079;28;20522;-93
2022/01/28 07:48:10;;;;;;;22.80;4.50;;;;;;;;;;5089271;28;20095;-93
2022/01/28 07:50:37;;;;;;;20.50;4.88;;;;;;;;;;5078723;28;20405;-94
2022/01/28 07:53:04;;;;;;;13.93;3.53;;;;;;;;;;5081679;28;20039;-93
2022/01/28 07:55:31;;;;;;;19.85;4.63;;;;;;;;;;5080560;28;20044;-93
2022/01/28 07:57:57;;;;;;;17.25;4.43;;;;;;;;;;5081827;28;20062;-94
2022/01/28 08:00:26;;;;;;;22.60;5.07;;;;;;;;;;5092697;28;20108;-90
2022/01/28 08:02:53;;;;;;;20.73;4.13;;;;;;;;;;5061524;28;20044;-93
2022/01/28 08:05:20;;;;;;;15.80;4.10;;;;;;;;;;5061739;28;20078;-93
2022/01/28 08:08:12;;;;;;;22.60;4.63;;;;;;;;;;5060899;28;20500;-94
2022/01/28 08:10:49;;;;;;;22.83;4.70;;;;;;;;;;5103044;28;20088;-93
2022/01/28 08:13:16;;;;;;;18.20;4.38;;;;;;;;;;5054870;28;20542;-94
2022/01/28 08:15:42;;;;;;;17.42;4.20;;;;;;;;;;5068180;28;20121;-92
2022/01/28 08:18:09;;;;;;;20.10;4.38;;;;;;;;;;5089463;28;20052;-93
2022/01/28 08:20:40;;;;;;;27.80;5.32;;;;;;;;;;5082567;28;20101;-93
2022/01/28 08:23:16;;;;;;;22.73;5.47;;;;;;;;;;5074506;28;20040;-92
2022/01/28 08:25:43;;;;;;;18.88;4.40;;;;;;;;;;5064070;28;20044;-90
2022/01/28 08:28:09;;;;;;;22.40;4.32;;;;;;;;;;5054751;28;20070;-92
2022/01/28 08:30:38;;;;;;;21.40;4.57;;;;;;;;;;5048051;28;20062;-92
2022/01/28 08:33:05;;;;;;;21.85;4.65;;;;;;;;;;5065104;28;20040;-92
2022/01/28 08:35:36;;;;;;;17.15;4.60;;;;;;;;;;5059458;28;20131;-92
2022/01/28 08:38:02;;;;;;;24.02;6.07;;;;;;;;;;5068967;28;20085;-92
2022/01/28 08:40:29;;;;;;;23.55;5.38;;;;;;;;;;5066228;28;20067;-94
2022/01/28 08:42:56;;;;;;;25.00;4.93;;;;;;;;;;5061015;28;20039;-93
2022/01/28 08:45:22;;;;;;;24.27;5.50;;;;;;;;;;5058494;28;20051;-92
2022/01/28 08:47:49;;;;;;;22.08;4.78;;;;;;;;;;5057820;28;20032;-93
2022/01/28 08:50:15;;;;;;;22.33;6.53;;;;;;;;;;5063404;28;20578;-91
2022/01/28 08:52:46;;;;;;;22.98;5.30;;;;;;;;;;5085065;28;20043;-95
2022/01/28 08:55:13;;;;;;;20.17;5.03;;;;;;;;;;5071713;28;20057;-92
2022/01/28 08:57:43;;;;;;;20.20;4.93;;;;;;;;;;5057020;28;20044;-91
2022/01/28 09:00:10;;;;;;;22.63;4.45;;;;;;;;;;5057679;28;20032;-93
2022/01/28 09:02:37;;;;;;;21.20;4.65;;;;;;;;;;5083419;28;20074;-89
2022/01/28 09:05:03;;;;;;;17.38;4.55;;;;;;;;;;5124190;27;20034;-90
2022/01/28 09:07:29;;;;;;;17.17;3.78;;;;;;;;;;5064266;28;20032;-91
2022/01/28 09:10:02;;;;;;;18.23;4.50;;;;;;;;;;5068692;28;20035;-93
2022/01/28 09:14:56;;;;;;;23.25;5.03;;;;;;;;;;5078872;28;20086;-92
2022/01/28 09:17:23;;;;;;;18.45;4.15;;;;;;;;;;5066074;28;20066;-93
2022/01/28 09:19:49;;;;;;;23.60;5.07;;;;;;;;;;5073885;28;20052;-90
2022/01/28 09:22:15;;;;;;;17.98;4.80;;;;;;;;;;5061412;28;20039;-92
2022/01/28 09:24:41;;;;;;;25.17;5.05;;;;;;;;;;5062023;28;20038;-92
2022/01/28 09:27:07;;;;;;;20.98;5.25;;;;;;;;;;5053802;28;20044;-90
2022/01/28 09:29:34;;;;;;;22.73;4.85;;;;;;;;;;5041027;28;20098;-91
2022/01/28 09:32:00;;;;;;;19.52;4.50;;;;;;;;;;5052773;28;20127;-90
2022/01/28 09:34:27;;;;;;;24.05;5.18;;;;;;;;;;5106017;28;20445;-93
2022/01/28 09:36:53;;;;;;;19.88;4.60;;;;;;;;;;5058512;28;20097;-94
2022/01/28 09:39:20;;;;;;;20.17;4.97;;;;;;;;;;5062586;28;20040;-95
2022/01/28 09:41:51;;;;;;;25.70;4.60;;;;;;;;;;5093466;28;20043;-94
2022/01/28 09:44:20;;;;;;;24.85;4.68;;;;;;;;;;5089841;28;20487;-92
2022/01/28 09:46:47;;;;;;;23.88;4.93;;;;;;;;;;5056289;28;20118;-93
2022/01/28 09:49:13;;;;;;;21.77;5.03;;;;;;;;;;5059515;28;20051;-90
2022/01/28 09:51:39;;;;;;;21.90;4.50;;;;;;;;;;5055005;28;20036;-94
2022/01/28 09:54:05;;;;;;;23.10;5.22;;;;;;;;;;5090622;28;20043;-92
2022/01/28 09:56:31;;;;;;;20.63;4.78;;;;;;;;;;5090746;28;20057;-90
2022/01/28 09:58:59;;;;;;;16.88;4.22;;;;;;;;;;5081919;28;20110;-90
2022/01/28 10:01:26;;;;;;;23.50;5.07;;;;;;;;;;5089634;28;20035;-90
2022/01/28 10:04:04;;;;;;;17.17;4.57;;;;;;;;;;5105860;28;20043;-92
2022/01/28 10:06:31;;;;;;;26.48;5.57;;;;;;;;;;5110701;28;20043;-93
2022/01/28 10:09:01;;;;;;;21.70;4.93;;;;;;;;;;5079764;28;20040;-93
2022/01/28 10:11:27;;;;;;;16.67;4.90;;;;;;;;;;5075769;28;20042;-91
2022/01/28 10:13:56;;;;;;;22.15;5.32;;;;;;;;;;5051327;28;20036;-90
2022/01/28 10:16:30;;;;;;;27.30;5.05;;;;;;;;;;5089523;28;20052;-93
2022/01/28 10:19:00;;;;;;;21.25;4.25;;;;;;;;;;5048090;28;20046;-93
2022/01/28 10:21:40;;;;;;;21.33;5.22;;;;;;;;;;5063319;28;20039;-93
2022/01/28 10:24:06;;;;;;;21.30;5.15;;;;;;;;;;5066126;28;20043;-93
2022/01/28 10:26:43;;;;;;;24.08;4.68;;;;;;;;;;5091138;28;20516;-94
2022/01/28 10:29:13;;;;;;;22.60;5.25;;;;;;;;;;5060672;28;20495;-93
2022/01/28 10:31:40;;;;;;;18.70;4.35;;;;;;;;;;5057421;28;20082;-93
2022/01/28 10:34:10;;;;;;;19.40;4.50;;;;;;;;;;5058124;28;20040;-94
2022/01/28 10:36:37;;;;;;;23.17;4.50;;;;;;;;;;5060854;28;20089;-92
2022/01/28 10:39:04;;;;;;;17.90;4.38;;;;;;;;;;5075563;28;20044;-87
2022/01/28 10:41:30;;;;;;;20.65;5.20;;;;;;;;;;5071898;28;20040;-89
2022/01/28 10:43:58;;;;;;;21.42;5.32;;;;;;;;;;5092397;28;20296;-93
2022/01/28 10:46:26;;;;;;;19.23;4.20;;;;;;;;;;5062000;28;20093;-90
2022/01/28 10:48:57;;;;;;;21.42;5.85;;;;;;;;;;5070358;28;20078;-90
2022/01/28 10:51:40;;;;;;;26.30;4.88;;;;;;;;;;5070319;28;20443;-94
2022/01/28 10:54:07;;;;;;;22.15;5.22;;;;;;;;;;5105945;28;20040;-89
2022/01/28 10:56:50;;;;;;;24.85;4.65;;;;;;;;;;5055609;28;20074;-87
2022/01/28 10:59:18;;;;;;;14.88;4.70;;;;;;;;;;5051922;28;20475;-94
2022/01/28 11:01:45;;;;;;;18.25;4.50;;;;;;;;;;5070663;28;20076;-93
2022/01/28 11:04:12;;;;;;;21.63;4.10;;;;;;;;;;5074579;28;20511;-86
2022/01/28 11:06:39;;;;;;;23.70;5.03;;;;;;;;;;5077814;28;20037;-93
2022/01/28 11:09:08;;;;;;;15.65;3.63;;;;;;;;;;5076756;28;20422;-93
2022/01/28 11:11:34;;;;;;;21.50;4.22;;;;;;;;;;5092548;28;20045;-90
2022/01/28 11:14:00;;;;;;;18.50;4.68;;;;;;;;;;5060286;28;20054;-93
2022/01/28 11:16:26;;;;;;;24.23;6.47;;;;;;;;;;5075112;28;20052;-91
2022/01/28 11:18:54;;;;;;;22.00;4.57;;;;;;;;;;5094445;28;20059;-94
2022/01/28 11:21:29;;;;;;;14.60;4.20;;;;;;;;;;5073127;28;20045;-91
2022/01/28 11:24:11;;;;;;;19.85;5.20;;;;;;;;;;5052373;28;20036;-87
2022/01/28 11:27:01;;;;;;;15.07;3.65;;;;;;;;;;5110132;28;20051;-94
2022/01/28 11:29:28;;;;;;;18.38;4.60;;;;;;;;;;5060085;28;20087;-89
2022/01/28 11:31:55;;;;;;;21.52;4.50;;;;;;;;;;5077291;28;20040;-87
2022/01/28 11:34:25;;;;;;;16.98;5.10;;;;;;;;;;5097843;28;20040;-94
2022/01/28 11:36:55;;;;;;;18.05;3.90;;;;;;;;;;5059500;28;20105;-87
2022/01/28 11:39:33;;;;;;;19.55;4.68;;;;;;;;;;5058978;28;20145;-93
2022/01/28 11:42:08;;;;;;;21.30;5.00;;;;;;;;;;5060769;28;20052;-90
2022/01/28 11:44:42;;;;;;;19.65;4.32;;;;;;;;;;5060654;28;20185;-93
2022/01/28 11:47:20;;;;;;;18.80;4.25;;;;;;;;;;5059442;28;20053;-90
2022/01/28 11:49:53;;;;;;;16.17;4.78;;;;;;;;;;5108965;28;20518;-91
2022/01/28 11:52:38;;;;;;;20.35;4.88;;;;;;;;;;5057259;28;20047;-93
2022/01/28 11:55:28;;;;;;;20.67;4.35;;;;;;;;;;5093890;28;20041;-95
2022/01/28 11:58:00;;;;;;;16.75;4.10;;;;;;;;;;5092219;28;20076;-91
2022/01/28 12:00:53;;;;;;;21.02;4.07;;;;;;;;;;5091436;28;20044;-87
2022/01/28 12:03:23;;;;;;;19.80;3.33;;;;;;;;;;5058916;28;20036;-93
2022/01/28 12:05:49;;;;;;;20.17;4.30;;;;;;;;;;5058546;28;20052;-87
2022/01/28 12:08:16;;;;;;;17.80;4.82;;;;;;;;;;5074466;28;20036;-90
2022/01/28 12:10:45;;;;;;;16.95;3.92;;;;;;;;;;5091401;28;20044;-90
2022/01/28 12:13:17;;;;;;;17.38;4.60;;;;;;;;;;5057045;28;20039;-87
2022/01/28 12:16:04;;;;;;;16.58;3.80;;;;;;;;;;5090182;28;20036;-89
2022/01/28 12:21:38;;;;;;;22.35;4.68;;;;;;;;;;5111712;28;20188;-94
2022/01/28 12:24:19;;;;;;;16.98;3.88;;;;;;;;;;5058447;28;20043;-93
2022/01/28 12:27:03;;;;;;;27.38;5.00;;;;;;;;;;5091893;28;20048;-92
2022/01/28 12:29:30;;;;;;;16.50;4.00;;;;;;;;;;5093480;28;20047;-95
2022/01/28 12:31:57;;;;;;;16.38;4.50;;;;;;;;;;5060923;28;20040;-92
2022/01/28 12:34:24;;;;;;;25.08;5.22;;;;;;;;;;5077178;28;20081;-93
2022/01/28 12:36:50;;;;;;;18.98;4.30;;;;;;;;;;5060670;28;20040;-87
2022/01/28 12:41:57;;;;;;;15.13;4.13;;;;;;;;;;5109690;28;20135;-92
2022/01/28 12:44:26;;;;;;;18.48;3.78;;;;;;;;;;5108305;28;20123;-94
2022/01/28 12:46:57;;;;;;;18.45;5.32;;;;;;;;;;5092061;28;20396;-93
2022/01/28 12:49:24;;;;;;;15.75;3.97;;;;;;;;;;5059615;28;20503;-89
2022/01/28 12:51:53;;;;;;;16.30;3.80;;;;;;;;;;5092056;28;20040;-90
2022/01/28 12:54:29;;;;;;;16.42;4.25;;;;;;;;;;5058397;28;20047;-92
2022/01/28 12:56:55;;;;;;;15.43;3.33;;;;;;;;;;5058104;28;20131;-91
2022/01/28 12:59:21;;;;;;;20.42;4.43;;;;;;;;;;5059666;28;20032;-91
2022/01/28 13:01:54;;;;;;;18.63;4.57;;;;;;;;;;5060147;28;20085;-92
2022/01/28 13:04:24;;;;;;;15.25;3.55;;;;;;;;;;5058496;28;20062;-91
2022/01/28 13:09:18;;;;;;;16.60;3.90;;;;;;;;;;5109167;28;20621;-93
2022/01/28 13:11:45;;;;;;;15.02;4.25;;;;;;;;;;5078174;28;20275;-91
2022/01/28 13:14:12;;;;;;;17.27;3.28;;;;;;;;;;5091474;28;20279;-93
2022/01/28 13:16:41;;;;;;;18.40;3.78;;;;;;;;;;5061063;28;20515;-94
2022/01/28 13:19:07;;;;;;;15.80;4.05;;;;;;;;;;5064102;28;20052;-95
2022/01/28 13:21:34;;;;;;;16.10;3.60;;;;;;;;;;5063205;28;20036;-94
2022/01/28 13:24:05;;;;;;;20.92;4.95;;;;;;;;;;5079022;28;20121;-92
2022/01/28 13:26:31;;;;;;;21.50;3.72;;;;;;;;;;5061039;28;20043;-92
2022/01/28 13:29:08;;;;;;;14.35;3.97;;;;;;;;;;5060303;28;20044;-91
2022/01/28 13:32:15;;;;;;;16.02;3.63;;;;;;;;;;5063527;28;20036;-94
2022/01/28 13:34:51;;;;;;;21.83;4.72;;;;;;;;;;5100088;28;20078;-91
2022/01/28 13:37:33;;;;;;;18.73;4.57;;;;;;;;;;5059185;28;20494;-92
2022/01/28 13:39:59;;;;;;;18.85;4.03;;;;;;;;;;5058266;28;20039;-89
2022/01/28 13:42:26;;;;;;;14.88;3.90;;;;;;;;;;5074208;28;20556;-88
2022/01/28 13:44:52;;;;;;;14.02;3.28;;;;;;;;;;5076384;28;20036;-95
2022/01/28 13:47:19;;;;;;;18.67;4.22;;;;;;;;;;5058754;28;20395;-92
2022/01/28 13:49:45;;;;;;;22.10;4.53;;;;;;;;;;5058121;28;20067;-92
2022/01/28 13:52:16;;;;;;;11.27;3.30;;;;;;;;;;5089836;28;20036;-92
2022/01/28 13:54:42;;;;;;;13.75;3.70;;;;;;;;;;5089990;28;20096;-92
2022/01/28 13:57:09;;;;;;;13.30;3.40;;;;;;;;;;5056662;28;20040;-92
2022/01/28 13:59:36;;;;;;;15.98;3.72;;;;;;;;;;5057546;28;20061;-91
2022/01/28 14:02:04;;;;;;;15.50;3.70;;;;;;;;;;5057622;28;20044;-91
2022/01/28 14:04:38;;;;;;;15.52;4.05;;;;;;;;;;5110094;28;20040;-93
2022/01/28 14:07:31;;;;;;;15.48;3.08;;;;;;;;;;5075829;28;20078;-92
2022/01/28 14:10:03;;;;;;;13.43;3.45;;;;;;;;;;5055449;28;20044;-92
2022/01/28 14:12:46;;;;;;;12.57;2.90;;;;;;;;;;5057126;28;20381;-93
2022/01/28 14:17:53;;;;;;;17.23;3.90;;;;;;;;;;5074007;28;20083;-93
2022/01/28 14:20:19;;;;;;;16.23;4.13;;;;;;;;;;5057440;28;20201;-92
2022/01/28 14:22:46;;;;;;;14.38;3.42;;;;;;;;;;5089753;28;20036;-92
2022/01/28 14:25:12;;;;;;;13.13;3.20;;;;;;;;;;5055465;28;20047;-93
2022/01/28 14:30:16;;;;;;;17.15;3.45;;;;;;;;;;5106768;28;20056;-92
2022/01/28 14:32:42;;;;;;;15.80;3.35;;;;;;;;;;5057324;28;20403;-94
2022/01/28 14:35:09;;;;;;;13.18;3.33;;;;;;;;;;5058264;28;20044;-94
2022/01/28 14:37:38;;;;;;;13.45;2.85;;;;;;;;;;5057767;28;20044;-94
2022/01/28 14:40:08;;;;;;;18.90;3.80;;;;;;;;;;5057702;28;20126;-94
2022/01/28 14:42:34;;;;;;;18.27;3.75;;;;;;;;;;5057288;28;20036;-92
2022/01/28 14:45:00;;;;;;;17.90;3.00;;;;;;;;;;5074813;28;20036;-88
2022/01/28 14:47:27;;;;;;;15.88;3.30;;;;;;;;;;5077736;28;20043;-91
2022/01/28 14:49:53;;;;;;;11.55;2.95;;;;;;;;;;5058177;28;20071;-93
2022/01/28 14:52:21;;;;;;;19.73;3.90;;;;;;;;;;5060453;28;20085;-93
2022/01/28 14:54:48;;;;;;;17.05;3.20;;;;;;;;;;5057085;28;20118;-93
2022/01/28 14:57:15;;;;;;;20.50;2.80;;;;;;;;;;5057919;28;20044;-93
2022/01/28 14:59:42;;;;;;;15.65;3.15;;;;;;;;;;5057351;28;20070;-94
2022/01/28 15:02:14;;;;;;;16.25;3.00;;;;;;;;;;5059079;28;20041;-93
2022/01/28 15:04:40;;;;;;;12.13;2.40;;;;;;;;;;5048477;28;20045;-94
2022/01/28 15:07:06;;;;;;;14.05;2.97;;;;;;;;;;5040140;28;20129;-93
2022/01/28 15:09:39;;;;;;;12.75;2.85;;;;;;;;;;5045132;28;20070;-94
2022/01/28 15:12:06;;;;;;;17.33;3.03;;;;;;;;;;5040956;28;20050;-94
2022/01/28 15:14:33;;;;;;;14.18;2.60;;;;;;;;;;5040956;28;20105;-94
2022/01/28 15:16:59;;;;;;;12.25;4.30;;;;;;;;;;5043509;28;20083;-94
2022/01/28 15:19:25;;;;;;;11.85;2.63;;;;;;;;;;5075874;28;20040;-94
2022/01/28 15:21:52;;;;;;;11.40;2.53;;;;;;;;;;5045214;28;20217;-94
2022/01/28 15:24:22;;;;;;;15.63;3.17;;;;;;;;;;5043023;28;20044;-94
2022/01/28 15:26:49;;;;;;;14.80;3.05;;;;;;;;;;5046633;28;20047;-94
2022/01/28 15:37:28;;;;;;;11.80;2.95;;;;;;;;;;5088552;28;20044;-93
2022/01/28 15:39:54;;;;;;;12.32;2.58;;;;;;;;;;5041923;28;20080;-93
2022/01/28 15:42:20;;;;;;;13.68;2.40;;;;;;;;;;5038331;28;20471;-94
2022/01/28 15:44:47;;;;;;;14.57;2.83;;;;;;;;;;5059812;28;20035;-94
2022/01/28 15:47:13;;;;;;;14.30;2.80;;;;;;;;;;5063573;28;20031;-94
2022/01/28 15:49:43;;;;;;;11.25;2.70;;;;;;;;;;5060080;28;20101;-93
2022/01/28 15:52:10;;;;;;;15.50;3.08;;;;;;;;;;5094540;28;20040;-93
2022/01/28 15:54:36;;;;;;;17.55;2.88;;;;;;;;;;5075630;28;20046;-91
2022/01/28 15:57:03;;;;;;;12.93;2.50;;;;;;;;;;5108778;28;20055;-91
2022/01/28 15:59:29;;;;;;;12.60;3.08;;;;;;;;;;5057741;28;20036;-93
2022/01/28 16:01:55;;;;;;;14.88;2.70;;;;;;;;;;5045275;28;20036;-94
2022/01/28 16:04:21;;;;;;;16.55;3.40;;;;;;;;;;5042326;28;20064;-95
2022/01/28 16:06:49;;;;;;;12.52;2.88;;;;;;;;;;5043397;28;20131;-94
2022/01/28 16:09:16;;;;;;;15.48;3.75;;;;;;;;;;5045045;28;20072;-94
2022/01/28 16:11:49;;;;;;;11.32;3.17;;;;;;;;;;5042521;28;20048;-93
2022/01/28 16:14:19;;;;;;;13.63;2.73;;;;;;;;;;5054745;28;20044;-94
2022/01/28 16:19:31;;;;;;;15.25;3.30;;;;;;;;;;5058250;28;20534;-94
2022/01/28 16:21:58;;;;;;;11.25;2.85;;;;;;;;;;5057496;28;20043;-94
2022/01/28 16:24:27;;;;;;;17.70;3.42;;;;;;;;;;5056993;28;20044;-94
2022/01/28 16:26:54;;;;;;;15.05;3.53;;;;;;;;;;5072449;28;20036;-93